Time;durP1;ratioP1;P1;durP2;ratioP2;P2;SDS_P1;SDS_P2;PMS_P1;PMS_P2;Temp;Humidity;BMP_temperature;BMP_pressure;BME280_temperature;BME280_humidity;BME280_pressure;Samples;Min_cycle;Max_cycle;Signal;HPM_P1;HPM_P2
2022/06/23 00:00:05;;;;;;;7.30;4.63;;;;;;;;;;5053157;28;20460;-41
2022/06/23 00:02:32;;;;;;;6.50;4.18;;;;;;;;;;5052742;28;20496;-41
2022/06/23 00:04:59;;;;;;;7.20;4.22;;;;;;;;;;5052754;28;20048;-41
2022/06/23 00:07:27;;;;;;;15.95;4.28;;;;;;;;;;5053086;28;20028;-42
2022/06/23 00:09:54;;;;;;;7.57;4.65;;;;;;;;;;5053090;28;20064;-41
2022/06/23 00:12:22;;;;;;;11.48;4.07;;;;;;;;;;5052527;28;20415;-41
2022/06/23 00:14:49;;;;;;;9.07;3.60;;;;;;;;;;5052148;28;20550;-41
2022/06/23 00:17:16;;;;;;;7.28;3.40;;;;;;;;;;5052517;28;20036;-42
2022/06/23 00:19:42;;;;;;;4.55;3.78;;;;;;;;;;5052847;28;20029;-42
2022/06/23 00:22:09;;;;;;;6.78;3.28;;;;;;;;;;5052595;28;20391;-42
2022/06/23 00:24:34;;;;;;;11.95;4.68;;;;;;;;;;5052723;28;20033;-41
2022/06/23 00:27:00;;;;;;;5.88;4.32;;;;;;;;;;5051143;28;20460;-42
2022/06/23 00:29:25;;;;;;;7.20;4.00;;;;;;;;;;5051102;28;20025;-42
2022/06/23 00:31:54;;;;;;;6.80;3.22;;;;;;;;;;5052288;28;20071;-41
2022/06/23 00:34:24;;;;;;;10.30;3.92;;;;;;;;;;5052178;28;20032;-42
2022/06/23 00:36:54;;;;;;;6.90;3.42;;;;;;;;;;5052224;28;20104;-41
2022/06/23 00:39:32;;;;;;;8.15;4.32;;;;;;;;;;5052096;28;20090;-41
2022/06/23 00:41:57;;;;;;;9.75;4.75;;;;;;;;;;5051902;28;20036;-41
2022/06/23 00:44:32;;;;;;;9.38;3.80;;;;;;;;;;5052084;28;20031;-41
2022/06/23 00:47:00;;;;;;;10.98;4.50;;;;;;;;;;5051908;28;20036;-42
2022/06/23 00:49:28;;;;;;;6.43;3.83;;;;;;;;;;5051980;28;20021;-41
2022/06/23 00:51:56;;;;;;;6.55;3.63;;;;;;;;;;5051825;28;20521;-41
2022/06/23 00:54:27;;;;;;;7.07;4.28;;;;;;;;;;5051840;28;20356;-41
2022/06/23 00:57:04;;;;;;;8.18;4.80;;;;;;;;;;5051978;28;20032;-42
2022/06/23 00:59:41;;;;;;;7.05;4.55;;;;;;;;;;5051887;28;20036;-41
2022/06/23 01:02:12;;;;;;;11.13;5.40;;;;;;;;;;5051733;28;20031;-41
2022/06/23 01:04:43;;;;;;;9.88;3.95;;;;;;;;;;5051850;28;20053;-41
2022/06/23 01:07:23;;;;;;;15.45;5.15;;;;;;;;;;5051652;28;20104;-42
2022/06/23 01:09:55;;;;;;;8.50;5.05;;;;;;;;;;5051633;28;20033;-41
2022/06/23 01:12:29;;;;;;;11.43;4.50;;;;;;;;;;5051514;28;20036;-41
2022/06/23 01:15:21;;;;;;;6.32;4.65;;;;;;;;;;5051446;28;20292;-41
2022/06/23 01:17:52;;;;;;;7.78;4.18;;;;;;;;;;5051268;28;20033;-41
2022/06/23 01:20:20;;;;;;;7.50;4.65;;;;;;;;;;5052007;28;20033;-42
2022/06/23 01:22:45;;;;;;;14.73;5.13;;;;;;;;;;5051532;28;20025;-42
2022/06/23 01:25:19;;;;;;;16.23;5.15;;;;;;;;;;5051640;28;20506;-42
2022/06/23 01:27:53;;;;;;;14.95;5.65;;;;;;;;;;5051036;28;20021;-41
2022/06/23 01:30:19;;;;;;;12.45;4.82;;;;;;;;;;5051309;28;20156;-42
2022/06/23 01:32:52;;;;;;;11.00;4.72;;;;;;;;;;5050021;28;20025;-41
2022/06/23 01:35:18;;;;;;;7.30;4.10;;;;;;;;;;5051594;28;20037;-41
2022/06/23 01:37:46;;;;;;;15.68;4.50;;;;;;;;;;5051521;28;20021;-42
2022/06/23 01:40:18;;;;;;;16.77;4.60;;;;;;;;;;5051504;28;20029;-41
2022/06/23 01:42:52;;;;;;;15.68;5.72;;;;;;;;;;5051368;28;20041;-42
2022/06/23 01:45:18;;;;;;;11.38;4.75;;;;;;;;;;5051108;28;20066;-41
2022/06/23 01:48:01;;;;;;;12.23;4.50;;;;;;;;;;5051184;28;20402;-42
2022/06/23 01:50:27;;;;;;;12.35;5.18;;;;;;;;;;5051222;28;20040;-41
2022/06/23 01:53:02;;;;;;;8.68;5.07;;;;;;;;;;5051082;28;20029;-41
2022/06/23 01:55:34;;;;;;;7.35;4.95;;;;;;;;;;5051484;28;20024;-41
2022/06/23 01:58:04;;;;;;;7.57;4.90;;;;;;;;;;5050964;28;20434;-41
2022/06/23 02:00:29;;;;;;;19.65;5.30;;;;;;;;;;5051328;28;20033;-43
2022/06/23 02:03:10;;;;;;;11.50;5.22;;;;;;;;;;5050883;28;20045;-41
2022/06/23 02:05:41;;;;;;;9.45;4.35;;;;;;;;;;5051018;28;20077;-41
2022/06/23 02:08:12;;;;;;;8.98;5.18;;;;;;;;;;5049640;28;20050;-41
2022/06/23 02:10:41;;;;;;;10.65;4.80;;;;;;;;;;5051072;28;20087;-41
2022/06/23 02:13:11;;;;;;;9.63;4.25;;;;;;;;;;5051055;28;20021;-41
2022/06/23 02:15:40;;;;;;;8.88;4.95;;;;;;;;;;5050722;28;20591;-42
2022/06/23 02:18:25;;;;;;;10.10;5.03;;;;;;;;;;5049511;28;20399;-41
2022/06/23 02:21:00;;;;;;;9.35;5.18;;;;;;;;;;5050884;28;20060;-42
2022/06/23 02:23:28;;;;;;;11.70;4.90;;;;;;;;;;5051339;28;20025;-41
2022/06/23 02:26:03;;;;;;;12.77;5.55;;;;;;;;;;5051141;28;20021;-41
2022/06/23 02:28:36;;;;;;;7.93;5.30;;;;;;;;;;5050942;28;20029;-41
2022/06/23 02:31:01;;;;;;;;;;;;;;;;;;5051111;28;20025;-41
2022/06/23 02:33:33;;;;;;;9.68;5.30;;;;;;;;;;5050774;28;19955;-41
2022/06/23 02:36:14;;;;;;;11.57;5.15;;;;;;;;;;5050707;28;20037;-42
2022/06/23 02:38:47;;;;;;;8.65;4.47;;;;;;;;;;5053554;28;20443;-42
2022/06/23 02:41:18;;;;;;;14.07;5.07;;;;;;;;;;5054331;28;20029;-41
2022/06/23 02:43:52;;;;;;;8.65;4.93;;;;;;;;;;5054670;28;20045;-41
2022/06/23 02:46:36;;;;;;;9.55;4.18;;;;;;;;;;5054277;28;20116;-41
2022/06/23 02:49:20;;;;;;;10.75;6.13;;;;;;;;;;5054117;28;20037;-41
2022/06/23 02:51:56;;;;;;;10.20;5.30;;;;;;;;;;5054429;28;20059;-41
2022/06/23 02:54:40;;;;;;;10.55;5.93;;;;;;;;;;5054207;28;20116;-40
2022/06/23 02:57:09;;;;;;;9.77;6.40;;;;;;;;;;5054068;28;20352;-42
2022/06/23 02:59:53;;;;;;;10.57;5.80;;;;;;;;;;5054468;28;20035;-42
2022/06/23 03:02:21;;;;;;;10.38;5.55;;;;;;;;;;5053820;28;20513;-41
2022/06/23 03:04:48;;;;;;;12.50;6.10;;;;;;;;;;5054069;28;20028;-41
2022/06/23 03:07:17;;;;;;;12.80;6.05;;;;;;;;;;5054167;28;20399;-41
2022/06/23 03:09:45;;;;;;;11.10;5.72;;;;;;;;;;5054190;28;20021;-41
2022/06/23 03:12:13;;;;;;;16.25;5.63;;;;;;;;;;5054031;28;20029;-42
2022/06/23 03:14:45;;;;;;;9.93;5.63;;;;;;;;;;5053852;28;20564;-41
2022/06/23 03:17:24;;;;;;;10.52;4.82;;;;;;;;;;5054009;28;20029;-41
2022/06/23 03:19:55;;;;;;;13.18;6.28;;;;;;;;;;5053748;28;20045;-41
2022/06/23 03:22:34;;;;;;;10.32;5.45;;;;;;;;;;5053444;28;20497;-42
2022/06/23 03:25:05;;;;;;;14.52;7.00;;;;;;;;;;5053934;28;20379;-41
2022/06/23 03:27:37;;;;;;;9.40;6.47;;;;;;;;;;5053540;28;20521;-41
2022/06/23 03:30:06;;;;;;;6.78;4.43;;;;;;;;;;5053817;28;20025;-42
2022/06/23 03:32:52;;;;;;;10.52;5.55;;;;;;;;;;5053392;28;20471;-41
2022/06/23 03:35:20;;;;;;;7.50;5.45;;;;;;;;;;5053472;28;20086;-41
2022/06/23 03:37:55;;;;;;;15.68;6.53;;;;;;;;;;5053348;28;20058;-42
2022/06/23 03:43:12;;;;;;;7.15;5.18;;;;;;;;;;5053208;28;20063;-41
2022/06/23 03:45:50;;;;;;;7.20;5.30;;;;;;;;;;5053175;28;20061;-41
2022/06/23 03:48:36;;;;;;;4.85;4.35;;;;;;;;;;5053433;28;20091;-41
2022/06/23 03:51:20;;;;;;;9.10;5.28;;;;;;;;;;5052413;28;20033;-41
2022/06/23 03:54:04;;;;;;;7.85;4.63;;;;;;;;;;5053075;28;20029;-41
2022/06/23 03:56:34;;;;;;;9.35;4.75;;;;;;;;;;5053397;28;20051;-41
2022/06/23 03:59:05;;;;;;;9.70;5.18;;;;;;;;;;5052936;28;20047;-41
2022/06/23 04:01:35;;;;;;;8.35;5.05;;;;;;;;;;5053114;28;20037;-42
2022/06/23 04:04:11;;;;;;;14.38;5.57;;;;;;;;;;5052915;28;20029;-41
2022/06/23 04:06:39;;;;;;;12.55;6.03;;;;;;;;;;5052867;28;20036;-41
2022/06/23 04:09:06;;;;;;;10.85;4.75;;;;;;;;;;5052701;28;20032;-42
2022/06/23 04:11:43;;;;;;;14.15;5.47;;;;;;;;;;5051471;28;20031;-42
2022/06/23 04:14:10;;;;;;;7.20;4.85;;;;;;;;;;5052418;28;20418;-42
2022/06/23 04:16:36;;;;;;;6.57;5.63;;;;;;;;;;5053018;28;20144;-41
2022/06/23 04:19:23;;;;;;;7.03;5.47;;;;;;;;;;5052499;28;20554;-41
2022/06/23 04:21:50;;;;;;;7.18;5.43;;;;;;;;;;5052410;28;20065;-41
2022/06/23 04:24:20;;;;;;;8.00;5.38;;;;;;;;;;5052383;28;20024;-41
2022/06/23 04:26:49;;;;;;;8.45;4.65;;;;;;;;;;5052472;28;20071;-42
2022/06/23 04:29:24;;;;;;;6.45;5.03;;;;;;;;;;5051072;28;20028;-41
2022/06/23 04:31:52;;;;;;;8.13;6.18;;;;;;;;;;5052435;28;20494;-41
2022/06/23 04:34:20;;;;;;;11.65;5.43;;;;;;;;;;5052448;28;20021;-42
2022/06/23 04:36:46;;;;;;;13.70;6.18;;;;;;;;;;5052242;28;20029;-42
2022/06/23 04:39:25;;;;;;;9.55;5.25;;;;;;;;;;5052141;28;20021;-42
2022/06/23 04:41:55;;;;;;;6.53;5.47;;;;;;;;;;5052274;28;20041;-41
2022/06/23 04:44:24;;;;;;;7.05;5.03;;;;;;;;;;5052313;28;20033;-42
2022/06/23 04:46:55;;;;;;;8.38;5.75;;;;;;;;;;5052098;28;20432;-41
2022/06/23 04:49:30;;;;;;;8.15;5.03;;;;;;;;;;5051995;28;20037;-42
2022/06/23 04:51:57;;;;;;;8.23;5.53;;;;;;;;;;5051931;28;20025;-41
2022/06/23 04:54:29;;;;;;;12.57;5.40;;;;;;;;;;5051929;28;20475;-41
2022/06/23 04:57:21;;;;;;;9.77;5.55;;;;;;;;;;5052189;28;20037;-41
2022/06/23 04:59:51;;;;;;;7.22;5.55;;;;;;;;;;5051644;28;20128;-41
2022/06/23 05:02:22;;;;;;;9.30;4.82;;;;;;;;;;5051636;28;20045;-41
2022/06/23 05:04:54;;;;;;;5.18;4.68;;;;;;;;;;5050875;28;20059;-41
2022/06/23 05:07:23;;;;;;;7.68;5.45;;;;;;;;;;5051740;28;20039;-41
2022/06/23 05:09:49;;;;;;;12.32;4.97;;;;;;;;;;5050473;28;20103;-42
2022/06/23 05:12:39;;;;;;;14.73;5.60;;;;;;;;;;5051327;28;20119;-41
2022/06/23 05:15:10;;;;;;;12.85;5.78;;;;;;;;;;5050091;28;20441;-41
2022/06/23 05:17:40;;;;;;;7.88;5.55;;;;;;;;;;5051527;28;20033;-41
2022/06/23 05:20:06;;;;;;;7.78;5.35;;;;;;;;;;5051461;28;20033;-42
2022/06/23 05:22:35;;;;;;;8.48;6.13;;;;;;;;;;5049914;28;20051;-41
2022/06/23 05:25:17;;;;;;;6.82;5.38;;;;;;;;;;5051754;28;20029;-41
2022/06/23 05:27:44;;;;;;;7.53;5.65;;;;;;;;;;5051483;28;20033;-41
2022/06/23 05:30:29;;;;;;;5.88;5.28;;;;;;;;;;5051384;28;20025;-41
2022/06/23 05:32:58;;;;;;;9.23;5.35;;;;;;;;;;5051300;28;20111;-41
2022/06/23 05:35:49;;;;;;;9.95;6.20;;;;;;;;;;5051584;28;20017;-42
2022/06/23 05:38:26;;;;;;;5.78;4.43;;;;;;;;;;5050944;28;20102;-41
2022/06/23 05:40:54;;;;;;;5.85;4.90;;;;;;;;;;5051235;28;20036;-41
2022/06/23 05:43:20;;;;;;;8.35;5.35;;;;;;;;;;5051124;28;20028;-41
2022/06/23 05:45:56;;;;;;;21.67;7.40;;;;;;;;;;5051473;28;20037;-42
2022/06/23 05:48:29;;;;;;;7.38;4.82;;;;;;;;;;5051269;28;20059;-41
2022/06/23 05:51:27;;;;;;;11.23;5.32;;;;;;;;;;5051359;28;20148;-41
2022/06/23 05:53:55;;;;;;;8.70;4.95;;;;;;;;;;5049694;28;20032;-41
2022/06/23 05:56:23;;;;;;;9.43;5.65;;;;;;;;;;5051108;28;20427;-41
2022/06/23 05:59:09;;;;;;;8.65;5.38;;;;;;;;;;5051416;28;20426;-41
2022/06/23 06:01:39;;;;;;;8.77;4.97;;;;;;;;;;5050201;28;20055;-41
2022/06/23 06:04:25;;;;;;;9.77;5.95;;;;;;;;;;5050952;28;20044;-41
2022/06/23 06:06:50;;;;;;;14.55;6.10;;;;;;;;;;5050900;28;20412;-41
2022/06/23 06:12:03;;;;;;;11.43;6.05;;;;;;;;;;5051021;28;20036;-41
2022/06/23 06:14:33;;;;;;;13.32;6.30;;;;;;;;;;5054597;28;20045;-41
2022/06/23 06:16:59;;;;;;;13.27;5.90;;;;;;;;;;5053785;28;20048;-42
2022/06/23 06:19:25;;;;;;;13.82;5.35;;;;;;;;;;5054965;28;20079;-41
2022/06/23 06:21:53;;;;;;;10.15;5.55;;;;;;;;;;5054905;28;20037;-41
2022/06/23 06:24:31;;;;;;;8.15;5.45;;;;;;;;;;5054594;28;20070;-41
2022/06/23 06:26:58;;;;;;;6.88;4.82;;;;;;;;;;5055009;28;20032;-41
2022/06/23 06:29:29;;;;;;;7.10;5.47;;;;;;;;;;5054854;28;20028;-42
2022/06/23 06:31:58;;;;;;;10.45;5.65;;;;;;;;;;5054612;28;20082;-41
2022/06/23 06:34:30;;;;;;;10.02;6.03;;;;;;;;;;5054610;28;20021;-41
2022/06/23 06:36:57;;;;;;;9.60;5.22;;;;;;;;;;5054528;28;20029;-41
2022/06/23 06:39:24;;;;;;;7.78;5.18;;;;;;;;;;5054469;28;20078;-41
2022/06/23 06:42:17;;;;;;;7.80;5.22;;;;;;;;;;5054717;28;20420;-41
2022/06/23 06:44:44;;;;;;;6.30;4.47;;;;;;;;;;5054180;28;20040;-41
2022/06/23 06:47:21;;;;;;;8.10;5.78;;;;;;;;;;5054555;28;20029;-42
2022/06/23 06:49:47;;;;;;;8.68;5.47;;;;;;;;;;5054304;28;20028;-42
2022/06/23 06:52:13;;;;;;;9.30;6.30;;;;;;;;;;5054399;28;20028;-41
2022/06/23 06:54:44;;;;;;;14.05;5.78;;;;;;;;;;5054537;28;20025;-41
2022/06/23 06:57:12;;;;;;;8.93;5.75;;;;;;;;;;5054067;28;20480;-42
2022/06/23 06:59:47;;;;;;;7.97;5.65;;;;;;;;;;5054232;28;20021;-42
2022/06/23 07:02:17;;;;;;;8.73;5.30;;;;;;;;;;5054086;28;20078;-41
2022/06/23 07:04:49;;;;;;;7.72;5.47;;;;;;;;;;5053997;28;20501;-41
2022/06/23 07:07:19;;;;;;;9.85;4.93;;;;;;;;;;5054230;28;20603;-41
2022/06/23 07:09:51;;;;;;;8.93;5.22;;;;;;;;;;5054231;28;20364;-42
2022/06/23 07:12:24;;;;;;;11.88;5.65;;;;;;;;;;5053744;28;20025;-41
2022/06/23 07:14:53;;;;;;;16.58;5.70;;;;;;;;;;5053741;28;20399;-41
2022/06/23 07:17:22;;;;;;;10.70;5.97;;;;;;;;;;5053973;28;20036;-41
2022/06/23 07:20:20;;;;;;;6.82;5.18;;;;;;;;;;5052434;28;20032;-41
2022/06/23 07:23:12;;;;;;;13.70;5.57;;;;;;;;;;5052333;28;20053;-41
2022/06/23 07:25:41;;;;;;;9.63;5.57;;;;;;;;;;5052497;28;20036;-41
2022/06/23 07:28:11;;;;;;;12.48;5.80;;;;;;;;;;5053502;28;20443;-41
2022/06/23 07:30:42;;;;;;;11.38;6.50;;;;;;;;;;5052588;28;20491;-41
2022/06/23 07:33:19;;;;;;;8.63;5.03;;;;;;;;;;5053437;28;20061;-41
2022/06/23 07:35:48;;;;;;;8.68;5.20;;;;;;;;;;5053470;28;20032;-41
2022/06/23 07:38:17;;;;;;;7.28;5.15;;;;;;;;;;5053486;28;20017;-42
2022/06/23 07:40:53;;;;;;;12.23;6.35;;;;;;;;;;5053245;28;20820;-41
2022/06/23 07:43:21;;;;;;;10.30;5.75;;;;;;;;;;5053279;28;20037;-41
2022/06/23 07:46:06;;;;;;;7.00;5.05;;;;;;;;;;5053289;28;20398;-42
2022/06/23 07:48:33;;;;;;;7.50;5.80;;;;;;;;;;5053277;28;20030;-41
2022/06/23 07:50:59;;;;;;;6.40;5.20;;;;;;;;;;5051874;28;20025;-42
2022/06/23 07:53:27;;;;;;;6.07;5.15;;;;;;;;;;5053096;28;20130;-42
2022/06/23 07:55:53;;;;;;;10.40;5.85;;;;;;;;;;5053021;28;20025;-41
2022/06/23 07:58:21;;;;;;;10.88;5.07;;;;;;;;;;5053277;28;20040;-42
2022/06/23 08:00:49;;;;;;;7.28;5.68;;;;;;;;;;5053002;28;20013;-41
2022/06/23 08:03:19;;;;;;;7.90;5.10;;;;;;;;;;5052996;28;20040;-42
2022/06/23 08:05:53;;;;;;;11.20;5.45;;;;;;;;;;5053284;28;20383;-41
2022/06/23 08:08:20;;;;;;;9.43;6.00;;;;;;;;;;5052670;28;20112;-41
2022/06/23 08:10:46;;;;;;;10.30;6.25;;;;;;;;;;5052759;28;20028;-42
2022/06/23 08:13:14;;;;;;;9.75;5.50;;;;;;;;;;5052700;28;20479;-41
2022/06/23 08:18:39;;;;;;;10.18;5.18;;;;;;;;;;5052694;28;20479;-42
2022/06/23 08:21:07;;;;;;;10.00;5.80;;;;;;;;;;5052563;28;20032;-41
2022/06/23 08:23:34;;;;;;;10.20;4.63;;;;;;;;;;5052359;28;20025;-41
2022/06/23 08:26:00;;;;;;;6.35;4.57;;;;;;;;;;5052574;28;20123;-42
2022/06/23 08:28:26;;;;;;;9.15;4.97;;;;;;;;;;5052598;28;20124;-42
2022/06/23 08:30:52;;;;;;;7.22;4.05;;;;;;;;;;5052644;28;20518;-41
2022/06/23 08:33:17;;;;;;;4.75;3.45;;;;;;;;;;5052677;28;20025;-42
2022/06/23 08:35:44;;;;;;;7.35;3.22;;;;;;;;;;5052099;28;20616;-41
2022/06/23 08:38:15;;;;;;;6.95;3.42;;;;;;;;;;5052161;28;20055;-41
2022/06/23 08:40:56;;;;;;;9.73;4.80;;;;;;;;;;5052170;28;20021;-41
2022/06/23 08:43:21;;;;;;;4.43;3.10;;;;;;;;;;5052047;28;20498;-41
2022/06/23 08:45:50;;;;;;;5.60;3.95;;;;;;;;;;5052152;28;20017;-41
2022/06/23 08:48:18;;;;;;;4.43;3.22;;;;;;;;;;5052073;28;20418;-41
2022/06/23 08:50:51;;;;;;;7.13;3.20;;;;;;;;;;5050747;28;20429;-42
2022/06/23 08:53:16;;;;;;;;;;;;;;;;;;5052375;28;20033;-41
2022/06/23 08:55:47;;;;;;;5.10;2.78;;;;;;;;;;5052288;28;19911;-42
2022/06/23 08:58:29;;;;;;;7.95;3.40;;;;;;;;;;5051830;28;20107;-41
2022/06/23 09:01:07;;;;;;;5.43;3.65;;;;;;;;;;5051901;28;20052;-41
2022/06/23 09:03:39;;;;;;;3.92;3.35;;;;;;;;;;5051831;28;20091;-42
2022/06/23 09:06:10;;;;;;;5.90;3.75;;;;;;;;;;5051642;28;20029;-42
2022/06/23 09:08:44;;;;;;;3.58;2.83;;;;;;;;;;5051876;28;20108;-41
2022/06/23 09:11:31;;;;;;;5.07;2.85;;;;;;;;;;5051857;28;20095;-41
2022/06/23 09:14:20;;;;;;;6.07;3.10;;;;;;;;;;5051496;28;20033;-42
2022/06/23 09:17:01;;;;;;;6.32;3.42;;;;;;;;;;5051673;28;20060;-41
2022/06/23 09:19:39;;;;;;;6.55;3.45;;;;;;;;;;5051439;28;20037;-41
2022/06/23 09:22:04;;;;;;;5.78;3.35;;;;;;;;;;5051669;28;20090;-41
2022/06/23 09:24:48;;;;;;;5.60;3.50;;;;;;;;;;5051739;28;20422;-42
2022/06/23 09:27:32;;;;;;;7.38;3.33;;;;;;;;;;5051413;28;20076;-42
2022/06/23 09:30:21;;;;;;;4.40;2.58;;;;;;;;;;5051452;28;20082;-42
2022/06/23 09:32:56;;;;;;;5.18;3.08;;;;;;;;;;5050929;28;20048;-41
2022/06/23 09:35:31;;;;;;;7.88;3.30;;;;;;;;;;5051282;28;20036;-41
2022/06/23 09:37:56;;;;;;;5.80;3.25;;;;;;;;;;5051553;28;20033;-42
2022/06/23 09:40:22;;;;;;;6.63;3.78;;;;;;;;;;5051230;28;20030;-42
2022/06/23 09:42:54;;;;;;;5.18;2.95;;;;;;;;;;5051112;28;20041;-42
2022/06/23 09:45:20;;;;;;;;;;;;;;;;;;5051685;28;20073;-43
2022/06/23 09:48:04;;;;;;;5.45;3.33;;;;;;;;;;5050483;28;19952;-42
2022/06/23 09:50:48;;;;;;;4.82;3.25;;;;;;;;;;5051108;28;20116;-41
2022/06/23 09:53:22;;;;;;;3.58;3.15;;;;;;;;;;5051079;28;20075;-41
2022/06/23 09:55:48;;;;;;;3.97;3.40;;;;;;;;;;5051423;28;20025;-42
2022/06/23 09:58:31;;;;;;;4.07;3.65;;;;;;;;;;5051052;28;20467;-42
2022/06/23 10:01:13;;;;;;;5.88;3.10;;;;;;;;;;5050963;28;20028;-41
2022/06/23 10:03:44;;;;;;;4.07;3.67;;;;;;;;;;5051279;28;20037;-42
2022/06/23 10:06:13;;;;;;;5.07;3.45;;;;;;;;;;5050982;28;20032;-42
2022/06/23 10:09:04;;;;;;;6.60;3.08;;;;;;;;;;5051390;28;20528;-42
2022/06/23 10:11:53;;;;;;;7.15;3.85;;;;;;;;;;5051089;28;20426;-42
2022/06/23 10:14:23;;;;;;;11.23;3.17;;;;;;;;;;5050698;28;20045;-42
2022/06/23 10:16:58;;;;;;;13.73;3.63;;;;;;;;;;5051081;28;20049;-42
2022/06/23 10:19:30;;;;;;;4.68;4.05;;;;;;;;;;5050890;28;20036;-42
2022/06/23 10:22:07;;;;;;;5.95;3.60;;;;;;;;;;5049689;28;20094;-42
2022/06/23 10:24:41;;;;;;;8.65;3.17;;;;;;;;;;5050886;28;20078;-42
2022/06/23 10:27:17;;;;;;;5.28;3.60;;;;;;;;;;5049676;28;20400;-41
2022/06/23 10:30:01;;;;;;;5.72;4.45;;;;;;;;;;5050912;28;20108;-41
2022/06/23 10:32:48;;;;;;;6.32;2.65;;;;;;;;;;5050720;28;20033;-42
2022/06/23 10:35:17;;;;;;;9.43;3.78;;;;;;;;;;5049571;28;20037;-44
2022/06/23 10:37:45;;;;;;;6.38;3.15;;;;;;;;;;5050784;28;20405;-41
2022/06/23 10:40:29;;;;;;;7.88;3.30;;;;;;;;;;5050677;28;20494;-41
2022/06/23 10:43:04;;;;;;;6.97;3.28;;;;;;;;;;5050914;28;20044;-41
2022/06/23 10:45:35;;;;;;;7.35;3.25;;;;;;;;;;5050640;28;20124;-41
2022/06/23 10:48:01;;;;;;;7.03;2.95;;;;;;;;;;5050683;28;20383;-42
2022/06/23 10:50:45;;;;;;;7.03;3.10;;;;;;;;;;5050579;28;20029;-41
2022/06/23 10:53:20;;;;;;;5.13;3.25;;;;;;;;;;5050506;28;20036;-42
2022/06/23 10:56:12;;;;;;;7.75;3.30;;;;;;;;;;5050675;28;20036;-41
2022/06/23 10:58:37;;;;;;;4.07;3.22;;;;;;;;;;5051245;28;20045;-42
2022/06/23 11:01:03;;;;;;;4.10;3.00;;;;;;;;;;5054010;28;20029;-42
2022/06/23 11:03:34;;;;;;;11.10;3.30;;;;;;;;;;5054008;28;20041;-41
2022/06/23 11:06:09;;;;;;;13.13;2.80;;;;;;;;;;5054310;28;20021;-41
2022/06/23 11:08:46;;;;;;;5.35;3.00;;;;;;;;;;5053957;28;20040;-42
2022/06/23 11:11:15;;;;;;;8.07;2.97;;;;;;;;;;5054077;28;20029;-42
2022/06/23 11:13:54;;;;;;;9.07;2.97;;;;;;;;;;5054218;28;20074;-42
2022/06/23 11:16:34;;;;;;;7.80;2.72;;;;;;;;;;5053619;28;20396;-41
2022/06/23 11:19:23;;;;;;;7.53;2.95;;;;;;;;;;5054153;28;20496;-42
2022/06/23 11:21:54;;;;;;;6.38;2.97;;;;;;;;;;5053072;28;20119;-42
2022/06/23 11:24:33;;;;;;;5.13;3.40;;;;;;;;;;5053570;28;20045;-42
2022/06/23 11:27:05;;;;;;;7.97;3.30;;;;;;;;;;5053635;28;20079;-42
2022/06/23 11:29:33;;;;;;;4.43;3.10;;;;;;;;;;5053467;28;20021;-42
2022/06/23 11:32:17;;;;;;;6.13;2.55;;;;;;;;;;5053816;28;20021;-41
2022/06/23 11:34:45;;;;;;;4.90;3.17;;;;;;;;;;5053512;28;20041;-42
2022/06/23 11:37:14;;;;;;;4.93;2.40;;;;;;;;;;5053711;28;20043;-41
2022/06/23 11:39:49;;;;;;;5.45;3.15;;;;;;;;;;5053671;28;20029;-41
2022/06/23 11:42:21;;;;;;;4.50;2.80;;;;;;;;;;5053153;28;20091;-42
2022/06/23 11:44:53;;;;;;;5.45;3.40;;;;;;;;;;5053347;28;20021;-41
2022/06/23 11:47:25;;;;;;;7.35;3.00;;;;;;;;;;5053234;28;20040;-41
2022/06/23 11:49:57;;;;;;;7.10;3.53;;;;;;;;;;5053163;28;20108;-41
2022/06/23 11:52:38;;;;;;;3.47;2.65;;;;;;;;;;5053166;28;20042;-41
2022/06/23 11:55:07;;;;;;;9.80;2.97;;;;;;;;;;5053065;28;20541;-42
2022/06/23 11:57:59;;;;;;;11.45;3.30;;;;;;;;;;5053059;28;20035;-42
2022/06/23 12:00:31;;;;;;;7.03;3.15;;;;;;;;;;5051667;28;20041;-41
2022/06/23 12:03:03;;;;;;;4.30;2.63;;;;;;;;;;5053173;28;20041;-42
2022/06/23 12:05:42;;;;;;;7.07;2.88;;;;;;;;;;5053168;28;20033;-42
2022/06/23 12:08:17;;;;;;;4.60;3.13;;;;;;;;;;5052892;28;20454;-42
2022/06/23 12:10:43;;;;;;;5.28;2.67;;;;;;;;;;5052431;28;20082;-42
2022/06/23 12:13:09;;;;;;;7.45;2.90;;;;;;;;;;5052810;28;20013;-41
2022/06/23 12:15:39;;;;;;;5.07;2.60;;;;;;;;;;5052759;28;20068;-42
2022/06/23 12:18:22;;;;;;;7.55;2.55;;;;;;;;;;5051795;28;20047;-42
2022/06/23 12:20:56;;;;;;;5.60;2.83;;;;;;;;;;5052666;28;20021;-42
2022/06/23 12:23:42;;;;;;;4.85;2.17;;;;;;;;;;5052664;28;20391;-42
2022/06/23 12:26:15;;;;;;;12.52;3.35;;;;;;;;;;5052397;28;20099;-42
2022/06/23 12:28:45;;;;;;;5.88;2.53;;;;;;;;;;5052795;28;20475;-42
2022/06/23 12:31:29;;;;;;;6.78;3.13;;;;;;;;;;5052648;28;20045;-42
2022/06/23 12:34:13;;;;;;;4.57;2.58;;;;;;;;;;5052383;28;20118;-42
2022/06/23 12:36:42;;;;;;;8.02;3.10;;;;;;;;;;5052399;28;20028;-42
2022/06/23 12:39:11;;;;;;;6.55;3.03;;;;;;;;;;5052290;28;20017;-42
2022/06/23 12:41:51;;;;;;;8.00;2.95;;;;;;;;;;5052544;28;20029;-42
2022/06/23 12:44:19;;;;;;;11.15;2.72;;;;;;;;;;5052223;28;20041;-43
2022/06/23 12:46:56;;;;;;;7.40;2.85;;;;;;;;;;5052138;28;20113;-42
2022/06/23 12:49:30;;;;;;;6.03;3.00;;;;;;;;;;5052666;28;20123;-41
2022/06/23 12:51:58;;;;;;;5.40;3.00;;;;;;;;;;5052006;28;20041;-42
2022/06/23 12:54:30;;;;;;;9.00;3.40;;;;;;;;;;5051928;28;20021;-41
2022/06/23 12:57:07;;;;;;;16.67;2.97;;;;;;;;;;5051932;28;20167;-41
2022/06/23 12:59:48;;;;;;;9.23;3.72;;;;;;;;;;5052251;28;20033;-41
2022/06/23 13:02:26;;;;;;;4.43;3.75;;;;;;;;;;5051706;28;20033;-42
2022/06/23 13:05:18;;;;;;;6.65;3.10;;;;;;;;;;5051879;28;20052;-41
2022/06/23 13:07:48;;;;;;;6.28;3.70;;;;;;;;;;5051616;28;20492;-41
2022/06/23 13:10:21;;;;;;;8.15;3.28;;;;;;;;;;5051646;28;20021;-41
2022/06/23 13:12:56;;;;;;;10.10;3.22;;;;;;;;;;5051786;28;20025;-41
2022/06/23 13:15:32;;;;;;;8.80;3.80;;;;;;;;;;5051359;28;20076;-41
2022/06/23 13:18:00;;;;;;;9.13;3.72;;;;;;;;;;5050514;28;20083;-41
2022/06/23 13:20:42;;;;;;;9.65;3.75;;;;;;;;;;5051457;28;20025;-41
2022/06/23 13:23:12;;;;;;;4.53;2.95;;;;;;;;;;5050857;28;20102;-41
2022/06/23 13:25:42;;;;;;;3.97;3.10;;;;;;;;;;5051478;28;20064;-41
2022/06/23 13:28:17;;;;;;;6.65;3.00;;;;;;;;;;5051797;28;20029;-41
2022/06/23 13:30:46;;;;;;;10.15;4.13;;;;;;;;;;5051429;28;20108;-41
2022/06/23 13:33:16;;;;;;;9.50;3.70;;;;;;;;;;5051622;28;20033;-41
2022/06/23 13:35:50;;;;;;;9.82;3.90;;;;;;;;;;5050130;28;20031;-41
2022/06/23 13:38:16;;;;;;;8.30;4.05;;;;;;;;;;5051249;28;20056;-41
2022/06/23 13:40:49;;;;;;;5.90;3.60;;;;;;;;;;5051598;28;20024;-42
2022/06/23 13:43:20;;;;;;;10.18;3.50;;;;;;;;;;5051155;28;20585;-41
2022/06/23 13:45:54;;;;;;;5.53;3.13;;;;;;;;;;5051535;28;20059;-41
2022/06/23 13:48:29;;;;;;;6.97;2.58;;;;;;;;;;5051190;28;20455;-41
2022/06/23 13:50:59;;;;;;;8.55;3.13;;;;;;;;;;5051433;28;20021;-41
2022/06/23 13:53:32;;;;;;;4.82;2.33;;;;;;;;;;5051121;28;20036;-41
2022/06/23 13:56:10;;;;;;;13.85;3.45;;;;;;;;;;5051168;28;20067;-41
2022/06/23 13:58:39;;;;;;;15.27;3.53;;;;;;;;;;5051098;28;20036;-41
2022/06/23 14:01:12;;;;;;;6.13;3.33;;;;;;;;;;5051316;28;20060;-46
2022/06/23 14:03:38;;;;;;;10.02;3.15;;;;;;;;;;5051141;28;20041;-41
2022/06/23 14:06:07;;;;;;;7.30;3.60;;;;;;;;;;5050886;28;20083;-41
2022/06/23 14:08:33;;;;;;;7.05;2.90;;;;;;;;;;5051042;28;20035;-41
2022/06/23 14:11:04;;;;;;;5.90;2.92;;;;;;;;;;5049597;28;20017;-41
2022/06/23 14:13:29;;;;;;;17.42;3.90;;;;;;;;;;5050931;28;20530;-41
2022/06/23 14:15:55;;;;;;;4.25;2.95;;;;;;;;;;5050961;28;20144;-41
2022/06/23 14:18:33;;;;;;;7.43;3.33;;;;;;;;;;5050933;28;20028;-41
2022/06/23 14:21:01;;;;;;;10.93;3.42;;;;;;;;;;5051261;28;20043;-41
2022/06/23 14:23:30;;;;;;;6.72;3.20;;;;;;;;;;5050783;28;20021;-41
2022/06/23 14:26:16;;;;;;;4.38;2.88;;;;;;;;;;5050835;28;20076;-41
2022/06/23 14:29:02;;;;;;;7.13;3.20;;;;;;;;;;5049623;28;20037;-41
2022/06/23 14:31:36;;;;;;;13.32;2.90;;;;;;;;;;5050629;28;20036;-41
2022/06/23 14:34:24;;;;;;;6.63;2.55;;;;;;;;;;5052384;28;20037;-41
2022/06/23 14:36:55;;;;;;;12.77;3.10;;;;;;;;;;5054627;28;20029;-41
2022/06/23 14:39:41;;;;;;;8.70;3.03;;;;;;;;;;5054577;28;20502;-41
2022/06/23 14:42:15;;;;;;;4.13;2.53;;;;;;;;;;5054278;28;20041;-41
2022/06/23 14:44:55;;;;;;;9.45;3.15;;;;;;;;;;5054429;28;20041;-41
2022/06/23 14:47:35;;;;;;;7.95;2.95;;;;;;;;;;5054431;28;20044;-41
2022/06/23 14:50:20;;;;;;;7.25;2.97;;;;;;;;;;5054589;28;20055;-41
2022/06/23 14:52:50;;;;;;;12.02;3.88;;;;;;;;;;5054357;28;20540;-41
2022/06/23 14:55:27;;;;;;;8.73;3.17;;;;;;;;;;5054110;28;20039;-41
2022/06/23 14:58:07;;;;;;;10.15;4.50;;;;;;;;;;5054216;28;20052;-41
2022/06/23 15:00:42;;;;;;;6.43;3.45;;;;;;;;;;5054377;28;20056;-41
2022/06/23 15:03:17;;;;;;;6.45;3.25;;;;;;;;;;5053032;28;20379;-41
2022/06/23 15:05:43;;;;;;;6.10;3.25;;;;;;;;;;5054207;28;20079;-41
2022/06/23 15:08:17;;;;;;;5.55;2.88;;;;;;;;;;5054017;28;20465;-41
2022/06/23 15:10:49;;;;;;;10.88;3.25;;;;;;;;;;5054042;28;20036;-41
2022/06/23 15:13:18;;;;;;;8.48;3.22;;;;;;;;;;5053881;28;20108;-41
2022/06/23 15:15:56;;;;;;;15.80;3.63;;;;;;;;;;5053846;28;20052;-41
2022/06/23 15:18:28;;;;;;;7.05;3.15;;;;;;;;;;5053741;28;20021;-41
2022/06/23 15:20:57;;;;;;;5.65;3.35;;;;;;;;;;5053822;28;20118;-41
2022/06/23 15:23:30;;;;;;;9.48;3.08;;;;;;;;;;5053757;28;20047;-41